sensor_id;sensor_type;location;lat;lon;timestamp;temperature;humidity
43143;DHT22;28750;59.842;17.584;2023-02-28T00:01:22;1.80;99.90
43143;DHT22;28750;59.842;17.584;2023-02-28T00:03:49;1.80;99.90
43143;DHT22;28750;59.842;17.584;2023-02-28T00:06:16;1.80;98.80
43143;DHT22;28750;59.842;17.584;2023-02-28T00:08:43;1.70;99.90
43143;DHT22;28750;59.842;17.584;2023-02-28T00:11:13;1.60;99.90
43143;DHT22;28750;59.842;17.584;2023-02-28T00:13:42;1.70;99.90
43143;DHT22;28750;59.842;17.584;2023-02-28T00:16:14;1.70;99.90
43143;DHT22;28750;59.842;17.584;2023-02-28T00:18:42;1.60;99.90
43143;DHT22;28750;59.842;17.584;2023-02-28T00:21:09;1.70;99.90
43143;DHT22;28750;59.842;17.584;2023-02-28T00:23:36;1.80;99.90
43143;DHT22;28750;59.842;17.584;2023-02-28T00:26:04;1.90;99.90
43143;DHT22;28750;59.842;17.584;2023-02-28T00:28:31;2.00;99.90
43143;DHT22;28750;59.842;17.584;2023-02-28T00:30:59;2.00;71.80
43143;DHT22;28750;59.842;17.584;2023-02-28T00:33:27;2.00;10.00
43143;DHT22;28750;59.842;17.584;2023-02-28T00:36:05;2.00;1.00
43143;DHT22;28750;59.842;17.584;2023-02-28T00:38:33;2.00;1.00
43143;DHT22;28750;59.842;17.584;2023-02-28T00:41:00;2.00;99.90
43143;DHT22;28750;59.842;17.584;2023-02-28T00:43:33;1.90;99.90
43143;DHT22;28750;59.842;17.584;2023-02-28T00:46:02;1.90;99.90
43143;DHT22;28750;59.842;17.584;2023-02-28T00:48:29;1.80;99.90
43143;DHT22;28750;59.842;17.584;2023-02-28T00:50:56;1.80;99.90
43143;DHT22;28750;59.842;17.584;2023-02-28T00:53:23;1.70;99.90
43143;DHT22;28750;59.842;17.584;2023-02-28T00:55:50;1.90;99.90
43143;DHT22;28750;59.842;17.584;2023-02-28T00:58:17;2.00;99.90
43143;DHT22;28750;59.842;17.584;2023-02-28T01:00:45;2.00;99.90
43143;DHT22;28750;59.842;17.584;2023-02-28T01:03:17;2.10;1.00
43143;DHT22;28750;59.842;17.584;2023-02-28T01:05:45;2.10;99.90
43143;DHT22;28750;59.842;17.584;2023-02-28T01:08:12;2.20;99.90
43143;DHT22;28750;59.842;17.584;2023-02-28T01:10:40;2.30;99.90
43143;DHT22;28750;59.842;17.584;2023-02-28T01:13:08;2.20;52.30
43143;DHT22;28750;59.842;17.584;2023-02-28T01:15:35;2.00;56.20
43143;DHT22;28750;59.842;17.584;2023-02-28T01:18:02;2.20;81.40
43143;DHT22;28750;59.842;17.584;2023-02-28T01:20:29;2.10;1.00
43143;DHT22;28750;59.842;17.584;2023-02-28T01:22:56;2.50;99.90
43143;DHT22;28750;59.842;17.584;2023-02-28T01:25:22;2.60;99.90
43143;DHT22;28750;59.842;17.584;2023-02-28T01:27:49;2.60;1.00
43143;DHT22;28750;59.842;17.584;2023-02-28T01:30:16;2.50;99.90
43143;DHT22;28750;59.842;17.584;2023-02-28T01:32:43;2.50;99.90
43143;DHT22;28750;59.842;17.584;2023-02-28T01:35:10;2.40;99.90
43143;DHT22;28750;59.842;17.584;2023-02-28T01:37:37;2.30;99.90
43143;DHT22;28750;59.842;17.584;2023-02-28T01:40:05;2.30;99.90
43143;DHT22;28750;59.842;17.584;2023-02-28T01:42:32;2.20;1.00
43143;DHT22;28750;59.842;17.584;2023-02-28T01:47:49;2.60;99.90
43143;DHT22;28750;59.842;17.584;2023-02-28T01:50:19;2.70;99.90
43143;DHT22;28750;59.842;17.584;2023-02-28T01:52:48;2.50;99.90
43143;DHT22;28750;59.842;17.584;2023-02-28T01:55:17;2.40;99.90
43143;DHT22;28750;59.842;17.584;2023-02-28T01:57:55;2.50;99.90
43143;DHT22;28750;59.842;17.584;2023-02-28T02:00:25;2.50;99.90
43143;DHT22;28750;59.842;17.584;2023-02-28T02:03:04;2.20;99.90
43143;DHT22;28750;59.842;17.584;2023-02-28T02:05:32;2.30;99.90
43143;DHT22;28750;59.842;17.584;2023-02-28T02:08:06;2.50;99.90
43143;DHT22;28750;59.842;17.584;2023-02-28T02:10:40;2.40;99.90
43143;DHT22;28750;59.842;17.584;2023-02-28T02:18:42;2.30;99.90
43143;DHT22;28750;59.842;17.584;2023-02-28T02:30:33;2.10;95.80
43143;DHT22;28750;59.842;17.584;2023-02-28T02:35:43;2.20;99.90
43143;DHT22;28750;59.842;17.584;2023-02-28T02:38:31;2.20;27.20
43143;DHT22;28750;59.842;17.584;2023-02-28T02:43:47;2.10;75.90
43143;DHT22;28750;59.842;17.584;2023-02-28T02:46:34;2.30;17.70
43143;DHT22;28750;59.842;17.584;2023-02-28T02:49:08;2.30;1.00
43143;DHT22;28750;59.842;17.584;2023-02-28T02:51:36;2.10;58.70
43143;DHT22;28750;59.842;17.584;2023-02-28T02:54:18;2.00;99.90
43143;DHT22;28750;59.842;17.584;2023-02-28T02:56:48;2.00;99.90
43143;DHT22;28750;59.842;17.584;2023-02-28T02:59:18;2.00;1.00
43143;DHT22;28750;59.842;17.584;2023-02-28T03:01:53;1.70;1.00
43143;DHT22;28750;59.842;17.584;2023-02-28T03:04:23;1.90;24.30
43143;DHT22;28750;59.842;17.584;2023-02-28T03:06:51;1.90;1.00
43143;DHT22;28750;59.842;17.584;2023-02-28T03:09:21;1.90;1.00
43143;DHT22;28750;59.842;17.584;2023-02-28T03:11:49;2.00;1.00
43143;DHT22;28750;59.842;17.584;2023-02-28T03:20:01;2.20;99.90
43143;DHT22;28750;59.842;17.584;2023-02-28T03:22:51;2.00;99.90
43143;DHT22;28750;59.842;17.584;2023-02-28T03:28:12;2.10;99.90
43143;DHT22;28750;59.842;17.584;2023-02-28T03:30:42;2.10;99.90
43143;DHT22;28750;59.842;17.584;2023-02-28T03:33:34;2.00;1.00
43143;DHT22;28750;59.842;17.584;2023-02-28T03:36:13;2.00;1.00
43143;DHT22;28750;59.842;17.584;2023-02-28T03:38:50;2.00;28.00
43143;DHT22;28750;59.842;17.584;2023-02-28T03:41:24;1.90;76.00
43143;DHT22;28750;59.842;17.584;2023-02-28T03:43:58;1.90;99.90
43143;DHT22;28750;59.842;17.584;2023-02-28T03:46:30;1.90;99.90
43143;DHT22;28750;59.842;17.584;2023-02-28T03:49:03;2.00;99.90
43143;DHT22;28750;59.842;17.584;2023-02-28T03:51:33;1.90;99.90
43143;DHT22;28750;59.842;17.584;2023-02-28T03:54:07;1.90;97.20
43143;DHT22;28750;59.842;17.584;2023-02-28T03:56:42;1.90;6.40
43143;DHT22;28750;59.842;17.584;2023-02-28T03:59:22;1.80;1.00
43143;DHT22;28750;59.842;17.584;2023-02-28T04:01:51;1.80;23.80
43143;DHT22;28750;59.842;17.584;2023-02-28T04:04:18;1.90;1.00
43143;DHT22;28750;59.842;17.584;2023-02-28T04:06:45;1.80;98.20
43143;DHT22;28750;59.842;17.584;2023-02-28T04:09:14;1.80;99.90
43143;DHT22;28750;59.842;17.584;2023-02-28T04:11:52;1.80;99.90
43143;DHT22;28750;59.842;17.584;2023-02-28T04:14:21;1.70;99.90
43143;DHT22;28750;59.842;17.584;2023-02-28T04:16:48;1.50;99.90
43143;DHT22;28750;59.842;17.584;2023-02-28T04:19:17;1.60;1.00
43143;DHT22;28750;59.842;17.584;2023-02-28T04:21:46;1.60;1.00
43143;DHT22;28750;59.842;17.584;2023-02-28T04:24:15;1.50;74.30
43143;DHT22;28750;59.842;17.584;2023-02-28T04:26:44;1.60;1.00
43143;DHT22;28750;59.842;17.584;2023-02-28T04:29:17;1.60;1.00
43143;DHT22;28750;59.842;17.584;2023-02-28T04:31:44;1.60;28.90
43143;DHT22;28750;59.842;17.584;2023-02-28T04:34:11;1.50;57.60
43143;DHT22;28750;59.842;17.584;2023-02-28T04:36:38;1.50;99.90
43143;DHT22;28750;59.842;17.584;2023-02-28T04:39:05;1.60;99.10
43143;DHT22;28750;59.842;17.584;2023-02-28T04:41:32;1.50;99.90
43143;DHT22;28750;59.842;17.584;2023-02-28T04:43:59;1.50;99.90
43143;DHT22;28750;59.842;17.584;2023-02-28T04:46:26;1.40;99.90
43143;DHT22;28750;59.842;17.584;2023-02-28T04:48:53;1.40;99.90
43143;DHT22;28750;59.842;17.584;2023-02-28T04:51:20;1.40;97.50
43143;DHT22;28750;59.842;17.584;2023-02-28T04:53:47;1.40;6.90
43143;DHT22;28750;59.842;17.584;2023-02-28T04:56:16;1.40;17.10
43143;DHT22;28750;59.842;17.584;2023-02-28T04:58:43;1.50;1.00
43143;DHT22;28750;59.842;17.584;2023-02-28T05:01:23;1.20;1.00
43143;DHT22;28750;59.842;17.584;2023-02-28T05:03:52;1.20;1.00
43143;DHT22;28750;59.842;17.584;2023-02-28T05:06:20;1.30;41.40
43143;DHT22;28750;59.842;17.584;2023-02-28T05:08:49;1.40;99.90
43143;DHT22;28750;59.842;17.584;2023-02-28T05:11:28;1.40;99.90
43143;DHT22;28750;59.842;17.584;2023-02-28T05:14:03;1.50;1.00
43143;DHT22;28750;59.842;17.584;2023-02-28T05:16:31;1.40;1.00
43143;DHT22;28750;59.842;17.584;2023-02-28T05:18:58;1.60;99.90
43143;DHT22;28750;59.842;17.584;2023-02-28T05:21:32;1.90;99.90
43143;DHT22;28750;59.842;17.584;2023-02-28T05:24:06;1.70;98.90
43143;DHT22;28750;59.842;17.584;2023-02-28T05:26:39;1.60;99.90
43143;DHT22;28750;59.842;17.584;2023-02-28T05:29:06;1.40;99.90
43143;DHT22;28750;59.842;17.584;2023-02-28T05:31:34;1.30;99.90
43143;DHT22;28750;59.842;17.584;2023-02-28T05:34:01;1.20;1.00
43143;DHT22;28750;59.842;17.584;2023-02-28T05:36:30;1.30;1.00
43143;DHT22;28750;59.842;17.584;2023-02-28T05:38:56;1.20;1.00
43143;DHT22;28750;59.842;17.584;2023-02-28T05:41:23;1.10;1.00
43143;DHT22;28750;59.842;17.584;2023-02-28T05:43:51;1.00;50.00
43143;DHT22;28750;59.842;17.584;2023-02-28T05:46:18;1.00;99.90
43143;DHT22;28750;59.842;17.584;2023-02-28T05:48:47;1.10;99.90
43143;DHT22;28750;59.842;17.584;2023-02-28T05:51:14;1.00;99.90
43143;DHT22;28750;59.842;17.584;2023-02-28T05:53:41;1.00;99.90
43143;DHT22;28750;59.842;17.584;2023-02-28T05:56:08;1.10;99.90
43143;DHT22;28750;59.842;17.584;2023-02-28T05:58:35;1.10;99.90
43143;DHT22;28750;59.842;17.584;2023-02-28T06:01:22;1.10;99.90
43143;DHT22;28750;59.842;17.584;2023-02-28T06:03:49;1.10;99.90
43143;DHT22;28750;59.842;17.584;2023-02-28T06:06:16;1.00;99.90
43143;DHT22;28750;59.842;17.584;2023-02-28T06:08:43;1.10;99.90
43143;DHT22;28750;59.842;17.584;2023-02-28T06:11:11;0.90;99.90
43143;DHT22;28750;59.842;17.584;2023-02-28T06:13:38;0.90;1.00
43143;DHT22;28750;59.842;17.584;2023-02-28T06:16:05;0.90;1.00
43143;DHT22;28750;59.842;17.584;2023-02-28T06:18:32;0.90;1.00
43143;DHT22;28750;59.842;17.584;2023-02-28T06:20:59;0.90;1.00
43143;DHT22;28750;59.842;17.584;2023-02-28T06:23:26;1.00;1.00
43143;DHT22;28750;59.842;17.584;2023-02-28T06:25:53;1.10;1.00
43143;DHT22;28750;59.842;17.584;2023-02-28T06:28:24;1.00;1.00
43143;DHT22;28750;59.842;17.584;2023-02-28T06:30:51;0.90;1.00
43143;DHT22;28750;59.842;17.584;2023-02-28T06:33:18;1.10;1.00
43143;DHT22;28750;59.842;17.584;2023-02-28T06:35:52;1.30;99.90
43143;DHT22;28750;59.842;17.584;2023-02-28T06:38:19;1.30;99.90
43143;DHT22;28750;59.842;17.584;2023-02-28T06:40:53;1.50;99.90
43143;DHT22;28750;59.842;17.584;2023-02-28T06:43:21;1.50;1.00
43143;DHT22;28750;59.842;17.584;2023-02-28T06:45:48;1.70;1.00
43143;DHT22;28750;59.842;17.584;2023-02-28T06:48:15;1.80;99.90
43143;DHT22;28750;59.842;17.584;2023-02-28T06:50:42;1.90;99.90
43143;DHT22;28750;59.842;17.584;2023-02-28T06:53:09;2.00;1.00
43143;DHT22;28750;59.842;17.584;2023-02-28T06:55:38;1.90;99.90
43143;DHT22;28750;59.842;17.584;2023-02-28T06:58:05;1.90;99.90
43143;DHT22;28750;59.842;17.584;2023-02-28T07:00:45;1.70;1.00
43143;DHT22;28750;59.842;17.584;2023-02-28T07:03:12;1.80;2.90
43143;DHT22;28750;59.842;17.584;2023-02-28T07:05:41;1.90;1.00
43143;DHT22;28750;59.842;17.584;2023-02-28T07:08:08;1.80;1.00
43143;DHT22;28750;59.842;17.584;2023-02-28T07:10:37;1.80;72.50
43143;DHT22;28750;59.842;17.584;2023-02-28T07:13:06;1.70;58.10
43143;DHT22;28750;59.842;17.584;2023-02-28T07:15:34;1.80;99.90
43143;DHT22;28750;59.842;17.584;2023-02-28T07:18:01;1.90;40.50
43143;DHT22;28750;59.842;17.584;2023-02-28T07:20:29;2.00;1.00
43143;DHT22;28750;59.842;17.584;2023-02-28T07:22:56;2.00;1.00
43143;DHT22;28750;59.842;17.584;2023-02-28T07:25:24;2.00;99.90
43143;DHT22;28750;59.842;17.584;2023-02-28T07:27:51;2.00;1.00
43143;DHT22;28750;59.842;17.584;2023-02-28T07:30:18;2.20;99.90
43143;DHT22;28750;59.842;17.584;2023-02-28T07:32:45;2.20;99.90
43143;DHT22;28750;59.842;17.584;2023-02-28T07:35:12;2.30;99.90
43143;DHT22;28750;59.842;17.584;2023-02-28T07:37:41;2.20;99.90
43143;DHT22;28750;59.842;17.584;2023-02-28T07:40:11;2.50;74.70
43143;DHT22;28750;59.842;17.584;2023-02-28T07:42:39;2.60;1.00
43143;DHT22;28750;59.842;17.584;2023-02-28T07:45:07;2.40;1.00
43143;DHT22;28750;59.842;17.584;2023-02-28T07:47:34;2.70;1.00
43143;DHT22;28750;59.842;17.584;2023-02-28T07:50:01;2.70;99.90
43143;DHT22;28750;59.842;17.584;2023-02-28T07:52:28;2.90;99.90
43143;DHT22;28750;59.842;17.584;2023-02-28T07:54:55;2.80;99.90
43143;DHT22;28750;59.842;17.584;2023-02-28T07:57:22;2.60;99.90
43143;DHT22;28750;59.842;17.584;2023-02-28T07:59:49;2.80;99.90
43143;DHT22;28750;59.842;17.584;2023-02-28T08:02:17;3.00;99.90
43143;DHT22;28750;59.842;17.584;2023-02-28T08:04:45;3.00;98.60
43143;DHT22;28750;59.842;17.584;2023-02-28T08:07:13;3.00;40.60
43143;DHT22;28750;59.842;17.584;2023-02-28T08:09:40;3.00;1.00
43143;DHT22;28750;59.842;17.584;2023-02-28T08:12:08;2.90;1.00
43143;DHT22;28750;59.842;17.584;2023-02-28T08:14:36;3.00;1.00
43143;DHT22;28750;59.842;17.584;2023-02-28T08:17:03;3.10;1.00
43143;DHT22;28750;59.842;17.584;2023-02-28T08:19:31;3.20;99.90
43143;DHT22;28750;59.842;17.584;2023-02-28T08:21:58;3.40;99.90
43143;DHT22;28750;59.842;17.584;2023-02-28T08:24:25;3.40;99.90
43143;DHT22;28750;59.842;17.584;2023-02-28T08:26:51;3.50;99.90
43143;DHT22;28750;59.842;17.584;2023-02-28T08:29:18;3.60;99.90
43143;DHT22;28750;59.842;17.584;2023-02-28T08:31:45;3.80;99.90
43143;DHT22;28750;59.842;17.584;2023-02-28T08:34:14;3.70;99.90
43143;DHT22;28750;59.842;17.584;2023-02-28T08:36:41;3.80;99.90
43143;DHT22;28750;59.842;17.584;2023-02-28T08:39:11;3.90;1.00
43143;DHT22;28750;59.842;17.584;2023-02-28T08:41:38;3.80;1.00
43143;DHT22;28750;59.842;17.584;2023-02-28T08:44:05;3.80;1.00
43143;DHT22;28750;59.842;17.584;2023-02-28T08:46:32;4.00;1.00
43143;DHT22;28750;59.842;17.584;2023-02-28T08:48:58;4.10;1.00
43143;DHT22;28750;59.842;17.584;2023-02-28T08:51:28;4.00;99.90
43143;DHT22;28750;59.842;17.584;2023-02-28T08:53:58;3.90;1.00
43143;DHT22;28750;59.842;17.584;2023-02-28T08:56:27;3.90;1.00
43143;DHT22;28750;59.842;17.584;2023-02-28T08:58:56;3.90;1.00
43143;DHT22;28750;59.842;17.584;2023-02-28T09:01:25;3.80;30.50
43143;DHT22;28750;59.842;17.584;2023-02-28T09:03:54;4.00;1.00
43143;DHT22;28750;59.842;17.584;2023-02-28T09:06:23;4.00;1.00
43143;DHT22;28750;59.842;17.584;2023-02-28T09:08:51;4.20;1.00
43143;DHT22;28750;59.842;17.584;2023-02-28T09:11:19;4.60;99.90
43143;DHT22;28750;59.842;17.584;2023-02-28T09:13:46;4.90;99.90
43143;DHT22;28750;59.842;17.584;2023-02-28T09:16:15;5.00;45.60
43143;DHT22;28750;59.842;17.584;2023-02-28T09:18:43;5.10;1.00
43143;DHT22;28750;59.842;17.584;2023-02-28T09:21:15;5.30;1.00
43143;DHT22;28750;59.842;17.584;2023-02-28T09:23:45;5.30;1.00
43143;DHT22;28750;59.842;17.584;2023-02-28T09:26:15;5.30;1.00
43143;DHT22;28750;59.842;17.584;2023-02-28T09:28:42;5.30;1.00
43143;DHT22;28750;59.842;17.584;2023-02-28T09:31:19;5.40;1.00
43143;DHT22;28750;59.842;17.584;2023-02-28T09:33:48;5.40;1.00
43143;DHT22;28750;59.842;17.584;2023-02-28T09:36:15;5.40;1.00
43143;DHT22;28750;59.842;17.584;2023-02-28T09:38:42;5.50;1.00
43143;DHT22;28750;59.842;17.584;2023-02-28T09:41:14;5.50;99.90
43143;DHT22;28750;59.842;17.584;2023-02-28T09:43:48;5.50;1.00
43143;DHT22;28750;59.842;17.584;2023-02-28T09:46:40;5.30;1.00
43143;DHT22;28750;59.842;17.584;2023-02-28T09:49:14;5.40;1.00
43143;DHT22;28750;59.842;17.584;2023-02-28T09:54:19;5.60;1.00
43143;DHT22;28750;59.842;17.584;2023-02-28T09:59:44;6.40;99.90
43143;DHT22;28750;59.842;17.584;2023-02-28T10:02:33;6.60;99.90
43143;DHT22;28750;59.842;17.584;2023-02-28T10:05:11;6.90;99.90
43143;DHT22;28750;59.842;17.584;2023-02-28T10:10:41;7.40;99.90
43143;DHT22;28750;59.842;17.584;2023-02-28T10:13:20;7.30;99.90
43143;DHT22;28750;59.842;17.584;2023-02-28T10:15:55;7.50;99.90
43143;DHT22;28750;59.842;17.584;2023-02-28T10:18:29;7.50;99.90
43143;DHT22;28750;59.842;17.584;2023-02-28T10:20:57;7.80;99.90
43143;DHT22;28750;59.842;17.584;2023-02-28T10:23:34;7.90;99.90
43143;DHT22;28750;59.842;17.584;2023-02-28T10:26:17;8.10;99.90
43143;DHT22;28750;59.842;17.584;2023-02-28T10:28:44;8.20;99.90
43143;DHT22;28750;59.842;17.584;2023-02-28T10:31:15;8.10;32.10
43143;DHT22;28750;59.842;17.584;2023-02-28T10:33:44;8.00;1.00
43143;DHT22;28750;59.842;17.584;2023-02-28T10:36:17;8.20;23.50
43143;DHT22;28750;59.842;17.584;2023-02-28T10:38:45;8.10;1.00
43143;DHT22;28750;59.842;17.584;2023-02-28T10:41:26;8.10;1.00
43143;DHT22;28750;59.842;17.584;2023-02-28T10:44:13;8.00;1.00
43143;DHT22;28750;59.842;17.584;2023-02-28T10:46:42;8.50;1.00
43143;DHT22;28750;59.842;17.584;2023-02-28T10:49:27;8.70;1.00
43143;DHT22;28750;59.842;17.584;2023-02-28T10:51:59;8.80;1.00
43143;DHT22;28750;59.842;17.584;2023-02-28T10:54:31;8.50;99.90
43143;DHT22;28750;59.842;17.584;2023-02-28T10:57:20;8.70;99.90
43143;DHT22;28750;59.842;17.584;2023-02-28T11:00:39;8.40;99.90
43143;DHT22;28750;59.842;17.584;2023-02-28T11:02:58;8.60;1.00
43143;DHT22;28750;59.842;17.584;2023-02-28T11:05:30;8.40;1.00
43143;DHT22;28750;59.842;17.584;2023-02-28T11:08:09;8.30;1.00
43143;DHT22;28750;59.842;17.584;2023-02-28T11:10:38;8.50;99.90
43143;DHT22;28750;59.842;17.584;2023-02-28T11:13:05;8.90;99.90
43143;DHT22;28750;59.842;17.584;2023-02-28T11:15:33;8.90;99.90
43143;DHT22;28750;59.842;17.584;2023-02-28T11:21:00;9.00;99.90
43143;DHT22;28750;59.842;17.584;2023-02-28T11:23:30;8.60;99.90
43143;DHT22;28750;59.842;17.584;2023-02-28T11:26:01;8.40;99.90
43143;DHT22;28750;59.842;17.584;2023-02-28T11:28:33;8.20;99.90
43143;DHT22;28750;59.842;17.584;2023-02-28T11:33:46;8.00;99.90
43143;DHT22;28750;59.842;17.584;2023-02-28T11:36:24;7.80;1.00
43143;DHT22;28750;59.842;17.584;2023-02-28T11:38:54;7.50;1.00
43143;DHT22;28750;59.842;17.584;2023-02-28T11:47:04;7.30;40.20
43143;DHT22;28750;59.842;17.584;2023-02-28T11:50:19;7.10;99.90
43143;DHT22;28750;59.842;17.584;2023-02-28T11:52:36;6.90;99.90
43143;DHT22;28750;59.842;17.584;2023-02-28T11:55:20;6.90;99.90
43143;DHT22;28750;59.842;17.584;2023-02-28T12:00:40;7.00;99.90
43143;DHT22;28750;59.842;17.584;2023-02-28T12:11:38;7.40;99.90
43143;DHT22;28750;59.842;17.584;2023-02-28T12:17:32;7.40;99.90
43143;DHT22;28750;59.842;17.584;2023-02-28T12:27:51;7.40;99.90
43143;DHT22;28750;59.842;17.584;2023-02-28T12:30:24;7.70;29.60
43143;DHT22;28750;59.842;17.584;2023-02-28T12:33:04;7.70;1.00
43143;DHT22;28750;59.842;17.584;2023-02-28T12:35:54;7.60;1.00
43143;DHT22;28750;59.842;17.584;2023-02-28T12:41:04;7.10;28.30
43143;DHT22;28750;59.842;17.584;2023-02-28T12:43:46;7.10;97.50
43143;DHT22;28750;59.842;17.584;2023-02-28T12:46:18;7.00;99.90
43143;DHT22;28750;59.842;17.584;2023-02-28T12:49:10;7.00;99.90
43143;DHT22;28750;59.842;17.584;2023-02-28T12:51:38;7.20;99.90
43143;DHT22;28750;59.842;17.584;2023-02-28T12:54:24;7.00;99.90
43143;DHT22;28750;59.842;17.584;2023-02-28T12:59:40;7.40;83.20
43143;DHT22;28750;59.842;17.584;2023-02-28T13:08:04;7.50;1.00
43143;DHT22;28750;59.842;17.584;2023-02-28T13:10:44;7.10;99.90
43143;DHT22;28750;59.842;17.584;2023-02-28T13:13:21;7.10;99.90
43143;DHT22;28750;59.842;17.584;2023-02-28T13:16:03;7.30;58.90
43143;DHT22;28750;59.842;17.584;2023-02-28T13:18:45;7.10;99.90
43143;DHT22;28750;59.842;17.584;2023-02-28T13:21:26;7.10;99.90
43143;DHT22;28750;59.842;17.584;2023-02-28T13:34:42;7.40;1.00
43143;DHT22;28750;59.842;17.584;2023-02-28T13:40:29;7.20;1.00
43143;DHT22;28750;59.842;17.584;2023-02-28T13:43:03;7.20;28.50
43143;DHT22;28750;59.842;17.584;2023-02-28T13:45:34;7.00;62.70
43143;DHT22;28750;59.842;17.584;2023-02-28T13:48:18;6.80;99.90
43143;DHT22;28750;59.842;17.584;2023-02-28T13:50:46;6.60;99.90
43143;DHT22;28750;59.842;17.584;2023-02-28T13:55:46;6.40;99.90
43143;DHT22;28750;59.842;17.584;2023-02-28T14:07:25;6.40;1.00
43143;DHT22;28750;59.842;17.584;2023-02-28T14:10:01;6.40;1.00
43143;DHT22;28750;59.842;17.584;2023-02-28T14:15:49;6.60;99.90
43143;DHT22;28750;59.842;17.584;2023-02-28T14:18:23;6.60;99.90
43143;DHT22;28750;59.842;17.584;2023-02-28T14:21:09;6.30;1.00
43143;DHT22;28750;59.842;17.584;2023-02-28T14:24:59;6.30;1.00
43143;DHT22;28750;59.842;17.584;2023-02-28T14:27:00;6.30;1.00
43143;DHT22;28750;59.842;17.584;2023-02-28T14:37:36;6.60;99.90
43143;DHT22;28750;59.842;17.584;2023-02-28T14:40:11;6.40;99.90
43143;DHT22;28750;59.842;17.584;2023-02-28T14:42:38;6.30;1.00
43143;DHT22;28750;59.842;17.584;2023-02-28T14:45:22;6.30;1.00
43143;DHT22;28750;59.842;17.584;2023-02-28T14:47:51;6.20;1.00
43143;DHT22;28750;59.842;17.584;2023-02-28T14:50:21;6.20;1.00
43143;DHT22;28750;59.842;17.584;2023-02-28T14:52:55;6.40;1.00
43143;DHT22;28750;59.842;17.584;2023-02-28T14:55:31;6.40;99.90
43143;DHT22;28750;59.842;17.584;2023-02-28T14:58:02;6.30;1.00
43143;DHT22;28750;59.842;17.584;2023-02-28T15:00:31;6.10;1.00
43143;DHT22;28750;59.842;17.584;2023-02-28T15:03:01;5.90;51.60
43143;DHT22;28750;59.842;17.584;2023-02-28T15:05:35;5.80;99.90
43143;DHT22;28750;59.842;17.584;2023-02-28T15:08:12;5.80;99.90
43143;DHT22;28750;59.842;17.584;2023-02-28T15:10:58;5.90;99.90
43143;DHT22;28750;59.842;17.584;2023-02-28T15:13:47;6.00;70.20
43143;DHT22;28750;59.842;17.584;2023-02-28T15:16:21;6.00;25.90
43143;DHT22;28750;59.842;17.584;2023-02-28T15:21:44;5.90;59.90
43143;DHT22;28750;59.842;17.584;2023-02-28T15:24:14;5.80;99.90
43143;DHT22;28750;59.842;17.584;2023-02-28T15:26:54;5.90;99.90
43143;DHT22;28750;59.842;17.584;2023-02-28T15:29:25;5.80;99.90
43143;DHT22;28750;59.842;17.584;2023-02-28T15:32:00;5.70;99.90
43143;DHT22;28750;59.842;17.584;2023-02-28T15:34:30;5.60;99.90
43143;DHT22;28750;59.842;17.584;2023-02-28T15:36:59;5.70;99.90
43143;DHT22;28750;59.842;17.584;2023-02-28T15:39:28;5.50;99.90
43143;DHT22;28750;59.842;17.584;2023-02-28T15:42:18;5.60;99.90
43143;DHT22;28750;59.842;17.584;2023-02-28T15:44:46;5.70;99.90
43143;DHT22;28750;59.842;17.584;2023-02-28T15:47:24;5.40;99.90
43143;DHT22;28750;59.842;17.584;2023-02-28T15:50:00;5.50;99.90
43143;DHT22;28750;59.842;17.584;2023-02-28T15:52:43;5.50;99.90
43143;DHT22;28750;59.842;17.584;2023-02-28T15:57:51;5.20;99.90
43143;DHT22;28750;59.842;17.584;2023-02-28T16:00:23;5.10;1.00
43143;DHT22;28750;59.842;17.584;2023-02-28T16:02:53;5.00;1.00
43143;DHT22;28750;59.842;17.584;2023-02-28T16:05:26;5.00;1.00
43143;DHT22;28750;59.842;17.584;2023-02-28T16:08:00;5.10;99.90
43143;DHT22;28750;59.842;17.584;2023-02-28T16:10:29;5.10;99.90
43143;DHT22;28750;59.842;17.584;2023-02-28T16:12:56;5.00;99.90
43143;DHT22;28750;59.842;17.584;2023-02-28T16:15:27;4.90;1.00
43143;DHT22;28750;59.842;17.584;2023-02-28T16:17:55;4.90;1.00
43143;DHT22;28750;59.842;17.584;2023-02-28T16:20:25;4.80;1.00
43143;DHT22;28750;59.842;17.584;2023-02-28T16:22:53;4.60;1.00
43143;DHT22;28750;59.842;17.584;2023-02-28T16:25:26;4.70;35.60
43143;DHT22;28750;59.842;17.584;2023-02-28T16:27:56;4.40;99.90
43143;DHT22;28750;59.842;17.584;2023-02-28T16:30:28;4.50;99.90
43143;DHT22;28750;59.842;17.584;2023-02-28T16:32:57;4.60;99.90
43143;DHT22;28750;59.842;17.584;2023-02-28T16:35:24;4.50;99.90
43143;DHT22;28750;59.842;17.584;2023-02-28T16:37:52;4.50;99.90
43143;DHT22;28750;59.842;17.584;2023-02-28T16:40:24;4.30;99.90
43143;DHT22;28750;59.842;17.584;2023-02-28T16:42:57;4.40;99.90
43143;DHT22;28750;59.842;17.584;2023-02-28T16:45:26;4.40;99.90
43143;DHT22;28750;59.842;17.584;2023-02-28T16:47:54;4.30;99.90
43143;DHT22;28750;59.842;17.584;2023-02-28T16:50:24;4.20;99.90
43143;DHT22;28750;59.842;17.584;2023-02-28T16:52:52;4.40;99.90
43143;DHT22;28750;59.842;17.584;2023-02-28T16:55:20;4.30;99.90
43143;DHT22;28750;59.842;17.584;2023-02-28T16:57:54;4.40;99.90
43143;DHT22;28750;59.842;17.584;2023-02-28T17:00:22;4.30;99.90
43143;DHT22;28750;59.842;17.584;2023-02-28T17:02:50;4.10;99.90
43143;DHT22;28750;59.842;17.584;2023-02-28T17:05:17;4.10;99.90
43143;DHT22;28750;59.842;17.584;2023-02-28T17:07:45;4.10;1.00
43143;DHT22;28750;59.842;17.584;2023-02-28T17:10:24;4.20;99.90
43143;DHT22;28750;59.842;17.584;2023-02-28T17:12:52;4.30;99.90
43143;DHT22;28750;59.842;17.584;2023-02-28T17:15:19;4.20;99.90
43143;DHT22;28750;59.842;17.584;2023-02-28T17:17:47;4.20;1.00
43143;DHT22;28750;59.842;17.584;2023-02-28T17:20:22;4.10;1.00
43143;DHT22;28750;59.842;17.584;2023-02-28T17:22:50;4.00;8.90
43143;DHT22;28750;59.842;17.584;2023-02-28T17:25:18;4.00;99.90
43143;DHT22;28750;59.842;17.584;2023-02-28T17:27:45;4.10;69.50
43143;DHT22;28750;59.842;17.584;2023-02-28T17:30:21;4.00;99.90
43143;DHT22;28750;59.842;17.584;2023-02-28T17:32:51;4.10;37.40
43143;DHT22;28750;59.842;17.584;2023-02-28T17:35:18;4.10;30.30
43143;DHT22;28750;59.842;17.584;2023-02-28T17:37:45;4.00;98.90
43143;DHT22;28750;59.842;17.584;2023-02-28T17:40:22;3.90;99.90
43143;DHT22;28750;59.842;17.584;2023-02-28T17:42:49;3.80;99.90
43143;DHT22;28750;59.842;17.584;2023-02-28T17:45:18;3.70;99.90
43143;DHT22;28750;59.842;17.584;2023-02-28T17:47:47;3.70;1.00
43143;DHT22;28750;59.842;17.584;2023-02-28T17:50:20;3.70;1.00
43143;DHT22;28750;59.842;17.584;2023-02-28T17:52:48;3.60;1.00
43143;DHT22;28750;59.842;17.584;2023-02-28T17:55:16;3.50;1.00
43143;DHT22;28750;59.842;17.584;2023-02-28T17:57:44;3.60;96.30
43143;DHT22;28750;59.842;17.584;2023-02-28T18:00:15;3.60;97.40
43143;DHT22;28750;59.842;17.584;2023-02-28T18:02:43;3.60;99.90
43143;DHT22;28750;59.842;17.584;2023-02-28T18:05:10;3.50;99.90
43143;DHT22;28750;59.842;17.584;2023-02-28T18:07:38;3.60;99.90